createdAt,value
2022-11-28T00:00:08.045Z,101539.33
2022-11-28T00:03:02.480Z,101537.14
2022-11-28T00:05:31.151Z,101540.77
2022-11-28T00:08:00.001Z,101540.55
2022-11-28T00:10:28.431Z,101540.89
2022-11-28T00:12:56.808Z,101532.46
2022-11-28T00:15:25.071Z,101532.61
2022-11-28T00:17:53.436Z,101531.62
2022-11-28T00:20:21.892Z,101532.99
2022-11-28T00:22:50.237Z,101533.32
2022-11-28T00:25:18.690Z,101532.52
2022-11-28T00:27:47.071Z,101530.78
2022-11-28T00:30:15.868Z,101533.28
2022-11-28T00:32:44.237Z,101530.33
2022-11-28T00:35:13.248Z,101527.27
2022-11-28T00:37:41.951Z,101529.45
2022-11-28T00:40:12.154Z,101529.98
2022-11-28T00:42:40.476Z,101527.66
2022-11-28T00:45:10.225Z,101528.60
2022-11-28T00:47:38.509Z,101529.19
2022-11-28T00:50:09.583Z,101528.75
2022-11-28T00:52:38.079Z,101527.52
2022-11-28T00:55:07.436Z,101525.36
2022-11-28T00:57:36.868Z,101519.91
2022-11-28T01:00:07.838Z,101521.01
2022-11-28T01:02:38.070Z,101522.40
2022-11-28T01:05:09.039Z,101520.27
2022-11-28T01:07:42.352Z,101519.83
2022-11-28T01:10:12.923Z,101522.62
2022-11-28T01:12:41.294Z,101519.67
2022-11-28T01:15:12.910Z,101520.86
2022-11-28T01:17:41.181Z,101517.42
2022-11-28T01:20:13.390Z,101514.30
2022-11-28T01:22:41.864Z,101513.91
2022-11-28T01:25:10.508Z,101508.79
2022-11-28T01:27:39.026Z,101508.86
2022-11-28T01:30:09.017Z,101506.69
2022-11-28T01:32:37.930Z,101507.30
2022-11-28T01:35:09.106Z,101501.96
2022-11-28T01:37:38.090Z,101500.95
2022-11-28T01:40:10.425Z,101494.79
2022-11-28T01:42:39.316Z,101494.45
2022-11-28T01:45:19.377Z,101493.45
2022-11-28T01:47:51.128Z,101492.91
2022-11-28T01:50:22.274Z,101489.54
2022-11-28T01:52:55.705Z,101489.56
2022-11-28T01:55:27.462Z,101485.38
2022-11-28T01:57:57.562Z,101480.67
2022-11-28T02:00:26.600Z,101475.38
2022-11-28T02:03:00.649Z,101476.83
2022-11-28T02:05:29.044Z,101475.29
2022-11-28T02:07:57.442Z,101470.07
2022-11-28T02:10:29.729Z,101467.58
2022-11-28T02:13:13.766Z,101463.81
2022-11-28T02:15:59.820Z,101459.65
2022-11-28T02:18:50.346Z,101457.42
2022-11-28T02:21:34.818Z,101456.89
2022-11-28T02:24:41.699Z,101458.17
2022-11-28T02:27:32.022Z,101455.55
2022-11-28T02:30:12.151Z,101454.65
2022-11-28T02:32:51.814Z,101452.20
2022-11-28T02:35:24.313Z,101450.79
2022-11-28T02:38:04.606Z,101448.18
2022-11-28T02:40:38.799Z,101446.23
2022-11-28T02:43:14.960Z,101441.73
2022-11-28T02:45:50.413Z,101437.60
2022-11-28T02:48:29.440Z,101437.66
2022-11-28T02:51:06.035Z,101437.98
2022-11-28T02:53:35.319Z,101441.33
2022-11-28T02:56:04.302Z,101440.44
2022-11-28T02:58:32.885Z,101439.70
2022-11-28T03:01:01.630Z,101436.96
2022-11-28T03:03:42.482Z,101436.67
2022-11-28T03:06:19.651Z,101436.15
2022-11-28T03:09:02.357Z,101437.75
2022-11-28T03:11:46.317Z,101433.10
2022-11-28T03:14:28.486Z,101433.54
2022-11-28T03:17:10.996Z,101425.83
2022-11-28T03:19:43.780Z,101429.14
2022-11-28T03:22:24.258Z,101427.24
2022-11-28T03:24:57.741Z,101433.05
2022-11-28T03:27:32.469Z,101433.23
2022-11-28T03:30:08.832Z,101431.08
2022-11-28T03:32:40.082Z,101427.22
2022-11-28T03:35:16.572Z,101428.45
2022-11-28T03:37:50.864Z,101422.09
2022-11-28T03:40:24.598Z,101421.21
2022-11-28T03:42:58.475Z,101424.95
2022-11-28T03:45:29.862Z,101428.14
2022-11-28T03:48:01.916Z,101432.00
2022-11-28T03:50:35.830Z,101434.45
2022-11-28T03:53:09.821Z,101426.96
2022-11-28T03:55:43.475Z,101426.23
2022-11-28T03:58:17.150Z,101430.80
2022-11-28T04:00:55.919Z,101424.23
2022-11-28T04:03:36.818Z,101426.58
2022-11-28T04:06:15.651Z,101430.14
2022-11-28T04:08:49.715Z,101430.45
2022-11-28T04:11:22.738Z,101426.24
2022-11-28T04:13:57.094Z,101427.71
2022-11-28T04:16:31.489Z,101429.89
2022-11-28T04:19:08.530Z,101425.69
2022-11-28T04:21:43.399Z,101422.44
2022-11-28T04:24:17.610Z,101424.12
2022-11-28T04:26:51.594Z,101421.00
2022-11-28T04:29:24.746Z,101417.46
2022-11-28T04:31:58.625Z,101411.20
2022-11-28T04:34:30.531Z,101413.23
2022-11-28T04:37:05.450Z,101416.86
2022-11-28T04:39:39.752Z,101416.40
2022-11-28T04:42:13.702Z,101410.96
2022-11-28T04:44:47.144Z,101414.46
2022-11-28T04:47:16.558Z,101417.73
2022-11-28T04:49:45.556Z,101422.90
2022-11-28T04:52:19.719Z,101423.05
2022-11-28T04:54:56.795Z,101422.28
2022-11-28T04:57:30.715Z,101420.13
2022-11-28T05:00:04.296Z,101415.84
2022-11-28T05:02:33.074Z,101417.48
2022-11-28T05:05:01.968Z,101416.57
2022-11-28T05:07:30.353Z,101419.95
2022-11-28T05:09:58.667Z,101416.02
2022-11-28T05:12:27.726Z,101416.00
2022-11-28T05:14:56.009Z,101413.38
2022-11-28T05:17:27.546Z,101410.00
2022-11-28T05:19:55.991Z,101413.48
2022-11-28T05:22:25.252Z,101410.13
2022-11-28T05:24:54.334Z,101412.00
2022-11-28T05:27:22.822Z,101416.12
2022-11-28T05:29:52.677Z,101411.90
2022-11-28T05:32:21.173Z,101406.63
2022-11-28T05:34:49.710Z,101407.53
2022-11-28T05:37:17.901Z,101410.13
2022-11-28T05:39:46.947Z,101407.00
2022-11-28T05:42:15.419Z,101412.19
2022-11-28T05:44:43.899Z,101417.48
2022-11-28T05:47:12.416Z,101421.09
2022-11-28T05:49:41.320Z,101415.95
2022-11-28T05:52:10.351Z,101414.64
2022-11-28T05:54:39.300Z,101414.52
2022-11-28T05:57:07.635Z,101416.46
2022-11-28T05:59:36.435Z,101413.97
2022-11-28T06:02:04.840Z,101414.91
2022-11-28T06:04:33.547Z,101413.17
2022-11-28T06:07:01.906Z,101414.04
2022-11-28T06:09:30.561Z,101412.66
2022-11-28T06:11:59.194Z,101410.52
2022-11-28T06:14:27.515Z,101405.15
2022-11-28T06:16:55.854Z,101406.80
2022-11-28T06:19:24.358Z,101407.57
2022-11-28T06:21:53.047Z,101408.64
2022-11-28T06:24:21.285Z,101409.98
2022-11-28T06:26:50.223Z,101407.56
2022-11-28T06:29:18.513Z,101408.15
2022-11-28T06:31:47.000Z,101406.08
2022-11-28T06:34:15.833Z,101407.39
2022-11-28T06:36:47.171Z,101409.64
2022-11-28T06:39:16.836Z,101416.45
2022-11-28T06:41:45.532Z,101419.79
2022-11-28T06:44:15.327Z,101416.66
2022-11-28T06:46:44.386Z,101416.35
2022-11-28T06:49:13.574Z,101412.39
2022-11-28T06:51:43.105Z,101414.58
2022-11-28T06:54:11.848Z,101418.90
2022-11-28T06:56:41.847Z,101422.66
2022-11-28T06:59:12.748Z,101420.16
2022-11-28T07:01:41.951Z,101420.61
2022-11-28T07:04:10.692Z,101421.69
2022-11-28T07:06:39.756Z,101422.41
2022-11-28T07:09:08.032Z,101419.44
2022-11-28T07:11:36.321Z,101419.90
2022-11-28T07:14:05.169Z,101416.75
2022-11-28T07:16:34.684Z,101419.99
2022-11-28T07:19:03.964Z,101416.41
2022-11-28T07:21:32.921Z,101414.80
2022-11-28T07:24:01.987Z,101412.39
2022-11-28T07:26:30.571Z,101411.05
2022-11-28T07:28:59.567Z,101408.33
2022-11-28T07:31:31.788Z,101412.70
2022-11-28T07:34:02.644Z,101409.62
2022-11-28T07:36:31.572Z,101413.40
2022-11-28T07:39:02.213Z,101411.14
2022-11-28T07:41:30.675Z,101413.00
2022-11-28T07:44:00.741Z,101411.95
2022-11-28T07:46:31.457Z,101414.28
2022-11-28T07:49:00.797Z,101412.13
2022-11-28T07:51:32.148Z,101413.36
2022-11-28T07:54:02.571Z,101413.60
2022-11-28T07:56:57.292Z,101412.39
2022-11-28T07:59:21.971Z,101410.80
2022-11-28T08:01:50.472Z,101410.55
2022-11-28T08:04:18.909Z,101413.00
2022-11-28T08:06:47.292Z,101411.50
2022-11-28T08:09:15.782Z,101413.56
2022-11-28T08:11:44.082Z,101412.23
2022-11-28T08:14:13.639Z,101409.67
2022-11-28T08:16:44.286Z,101412.81
2022-11-28T08:19:12.887Z,101412.63
2022-11-28T08:21:41.316Z,101413.52
2022-11-28T08:24:11.527Z,101413.02
2022-11-28T08:26:40.520Z,101412.77
2022-11-28T08:29:10.107Z,101412.01
2022-11-28T08:31:40.354Z,101412.48
2022-11-28T08:34:12.071Z,101409.39
2022-11-28T08:36:42.788Z,101408.27
2022-11-28T08:39:26.791Z,101407.56
2022-11-28T08:41:58.218Z,101407.56
2022-11-28T08:44:30.464Z,101403.48
2022-11-28T08:46:59.887Z,101405.50
2022-11-28T08:49:28.394Z,101407.48
2022-11-28T08:51:56.794Z,101406.48
2022-11-28T08:54:25.698Z,101411.08
2022-11-28T08:56:53.976Z,101407.68
2022-11-28T08:59:22.528Z,101408.54
2022-11-28T09:01:53.467Z,101405.69
2022-11-28T09:04:23.533Z,101399.71
2022-11-28T09:06:52.210Z,101396.95
2022-11-28T09:09:20.705Z,101393.08
2022-11-28T09:11:49.028Z,101393.71
2022-11-28T09:14:17.419Z,101388.98
2022-11-28T09:16:46.055Z,101390.90
2022-11-28T09:19:14.376Z,101391.73
2022-11-28T09:21:43.479Z,101382.77
2022-11-28T09:24:13.673Z,101379.27
2022-11-28T09:26:43.140Z,101377.59
2022-11-28T09:29:11.417Z,101374.59
2022-11-28T09:31:46.949Z,101371.31
2022-11-28T09:34:16.162Z,101375.05
2022-11-28T09:36:44.751Z,101376.93
2022-11-28T09:39:13.201Z,101379.08
2022-11-28T09:41:49.764Z,101373.26
2022-11-28T09:44:23.577Z,101373.20
2022-11-28T09:46:54.757Z,101370.98
2022-11-28T09:49:39.854Z,101370.71
2022-11-28T09:52:24.846Z,101369.55
2022-11-28T09:55:01.552Z,101366.52
2022-11-28T09:57:35.957Z,101364.13
2022-11-28T10:00:06.954Z,101358.52
2022-11-28T10:02:49.501Z,101359.55
2022-11-28T10:05:24.241Z,101353.76
2022-11-28T10:08:05.399Z,101354.45
2022-11-28T10:10:49.875Z,101350.86
2022-11-28T10:13:27.407Z,101349.91
2022-11-28T10:16:10.297Z,101350.92
2022-11-28T10:18:44.396Z,101348.77
2022-11-28T10:21:24.654Z,101345.46
2022-11-28T10:23:58.246Z,101339.45
2022-11-28T10:26:35.593Z,101339.77
2022-11-28T10:29:17.650Z,101344.16
2022-11-28T10:31:47.096Z,101339.24
2022-11-28T10:34:22.582Z,101341.36
2022-11-28T10:37:00.189Z,101337.39
2022-11-28T10:39:29.281Z,101336.98
2022-11-28T10:42:13.085Z,101335.90
2022-11-28T10:44:57.825Z,101330.22
2022-11-28T10:47:44.419Z,101324.31
2022-11-28T10:50:21.535Z,101323.70
2022-11-28T10:52:56.744Z,101320.73
2022-11-28T10:55:35.549Z,101316.96
2022-11-28T10:58:13.023Z,101319.30
2022-11-28T11:00:45.908Z,101313.88
2022-11-28T11:03:17.564Z,101311.73
2022-11-28T11:05:46.145Z,101313.45
2022-11-28T11:08:20.317Z,101312.38
2022-11-28T11:10:51.333Z,101313.72
2022-11-28T11:13:22.983Z,101312.11
2022-11-28T11:15:59.811Z,101306.70
2022-11-28T11:18:30.779Z,101305.50
2022-11-28T11:21:13.830Z,101308.27
2022-11-28T11:23:43.094Z,101312.23
2022-11-28T11:26:23.277Z,101311.87
2022-11-28T11:28:52.256Z,101311.53
2022-11-28T11:31:24.356Z,101316.65
2022-11-28T11:34:00.999Z,101315.94
2022-11-28T11:36:31.715Z,101321.13
2022-11-28T11:39:16.282Z,101324.95
2022-11-28T11:41:46.430Z,101320.15
2022-11-28T11:44:30.273Z,101325.63
2022-11-28T11:47:02.307Z,101326.45
2022-11-28T11:49:33.502Z,101321.65
2022-11-28T11:52:06.993Z,101318.80
2022-11-28T11:54:35.273Z,101320.05
2022-11-28T11:57:31.524Z,101321.08
2022-11-28T11:59:56.514Z,101322.70
2022-11-28T12:02:32.066Z,101322.95
2022-11-28T12:05:05.362Z,101323.34
2022-11-28T12:07:39.829Z,101319.20
2022-11-28T12:10:16.184Z,101323.21
2022-11-28T12:12:47.955Z,101323.09
2022-11-28T12:15:21.239Z,101326.77
2022-11-28T12:18:02.628Z,101326.38
2022-11-28T12:20:51.592Z,101321.83
2022-11-28T12:23:38.326Z,101318.27
2022-11-28T12:26:18.728Z,101316.27
2022-11-28T12:28:58.927Z,101315.80
2022-11-28T12:31:40.575Z,101313.00
2022-11-28T12:34:20.490Z,101312.50
2022-11-28T12:36:57.579Z,101312.27
2022-11-28T12:39:35.940Z,101311.58
2022-11-28T12:42:25.614Z,101310.75
2022-11-28T12:45:21.274Z,101310.30
2022-11-28T12:47:59.672Z,101307.48
2022-11-28T12:50:31.643Z,101307.05
2022-11-28T12:53:25.663Z,101310.90
2022-11-28T12:56:05.002Z,101311.04
2022-11-28T12:58:40.757Z,101313.02
2022-11-28T13:01:32.234Z,101309.72
2022-11-28T13:04:10.790Z,101306.79
2022-11-28T13:06:43.060Z,101302.18
2022-11-28T13:09:30.595Z,101304.91
2022-11-28T13:12:15.129Z,101307.28
2022-11-28T13:14:52.086Z,101302.67
2022-11-28T13:17:37.194Z,101308.13
2022-11-28T13:20:19.304Z,101304.70
2022-11-28T13:23:02.601Z,101303.27
2022-11-28T13:25:39.922Z,101304.45
2022-11-28T13:28:17.820Z,101304.05
2022-11-28T13:30:51.404Z,101304.12
2022-11-28T13:33:35.632Z,101301.63
2022-11-28T13:36:06.825Z,101305.24
2022-11-28T13:39:11.339Z,101304.40
2022-11-28T13:42:16.214Z,101302.33
2022-11-28T13:44:46.642Z,101305.02
2022-11-28T13:47:28.388Z,101300.88
2022-11-28T13:50:36.050Z,101301.76
2022-11-28T13:53:21.210Z,101298.50
2022-11-28T13:55:52.427Z,101293.54
2022-11-28T13:58:28.665Z,101291.51
2022-11-28T14:01:06.053Z,101293.21
2022-11-28T14:03:36.759Z,101293.27
2022-11-28T14:06:08.166Z,101293.49
2022-11-28T14:08:41.257Z,101290.05
2022-11-28T14:11:49.368Z,101291.80
2022-11-28T14:14:48.118Z,101289.80
2022-11-28T14:17:36.455Z,101291.15
2022-11-28T14:20:17.933Z,101288.00
2022-11-28T14:23:08.323Z,101281.14
2022-11-28T14:25:43.525Z,101277.56
2022-11-28T14:28:22.862Z,101277.58
2022-11-28T14:31:01.156Z,101278.11
2022-11-28T14:33:35.269Z,101281.96
2022-11-28T14:36:28.083Z,101278.97
2022-11-28T14:39:11.593Z,101277.23
2022-11-28T14:42:21.289Z,101276.10
2022-11-28T14:45:08.248Z,101277.20
2022-11-28T14:47:42.454Z,101273.59
2022-11-28T14:51:00.584Z,101274.02
2022-11-28T14:53:45.813Z,101271.92
2022-11-28T14:56:26.040Z,101275.29
2022-11-28T14:59:00.320Z,101274.75
2022-11-28T15:01:54.690Z,101270.77
2022-11-28T15:04:41.217Z,101266.36
2022-11-28T15:07:26.861Z,101267.48
2022-11-28T15:10:08.068Z,101271.05
2022-11-28T15:12:51.337Z,101272.98
2022-11-28T15:15:22.249Z,101276.15
2022-11-28T15:17:53.865Z,101272.59
2022-11-28T15:20:28.897Z,101273.30
2022-11-28T15:22:57.460Z,101271.88
2022-11-28T15:25:29.131Z,101273.14
2022-11-28T15:28:14.194Z,101276.44
2022-11-28T15:30:47.295Z,101277.55
2022-11-28T15:33:16.108Z,101275.75
2022-11-28T15:35:56.249Z,101278.75
2022-11-28T15:38:26.922Z,101279.23
2022-11-28T15:40:57.002Z,101278.15
2022-11-28T15:43:26.429Z,101275.68
2022-11-28T15:45:58.504Z,101272.00
2022-11-28T15:48:38.762Z,101274.20
2022-11-28T15:51:25.027Z,101274.79
2022-11-28T15:53:54.327Z,101269.98
2022-11-28T15:56:23.115Z,101271.73
2022-11-28T15:58:53.108Z,101272.85
2022-11-28T16:01:24.985Z,101270.86
2022-11-28T16:03:56.928Z,101268.79
2022-11-28T16:06:33.848Z,101271.67
2022-11-28T16:09:04.792Z,101272.38
2022-11-28T16:11:36.273Z,101269.23
2022-11-28T16:14:09.877Z,101269.28
2022-11-28T16:16:42.391Z,101271.17
2022-11-28T16:19:25.226Z,101275.84
2022-11-28T16:21:56.939Z,101274.25
2022-11-28T16:24:31.134Z,101276.09
2022-11-28T16:27:04.698Z,101278.02
2022-11-28T16:29:35.543Z,101275.25
2022-11-28T16:32:08.940Z,101276.84
2022-11-28T16:34:49.230Z,101277.88
2022-11-28T16:37:22.822Z,101275.98
2022-11-28T16:40:01.747Z,101276.02
2022-11-28T16:42:31.692Z,101275.42
2022-11-28T16:45:09.975Z,101278.70
2022-11-28T16:47:39.494Z,101272.38
2022-11-28T16:50:22.315Z,101275.04
2022-11-28T16:52:52.803Z,101274.74
2022-11-28T16:55:43.695Z,101271.55
2022-11-28T16:58:28.985Z,101272.43
2022-11-28T17:01:02.525Z,101275.66
2022-11-28T17:03:49.195Z,101273.42
2022-11-28T17:06:24.130Z,101276.23
2022-11-28T17:08:52.892Z,101274.61
2022-11-28T17:11:23.965Z,101275.96
2022-11-28T17:13:57.250Z,101280.85
2022-11-28T17:16:27.421Z,101279.42
2022-11-28T17:18:56.208Z,101278.40
2022-11-28T17:21:32.014Z,101281.74
2022-11-28T17:24:01.010Z,101281.16
2022-11-28T17:26:29.828Z,101287.11
2022-11-28T17:28:59.202Z,101282.11
2022-11-28T17:31:28.986Z,101283.81
2022-11-28T17:33:57.540Z,101289.48
2022-11-28T17:36:25.925Z,101286.30
2022-11-28T17:38:54.662Z,101286.05
2022-11-28T17:41:23.298Z,101283.49
2022-11-28T17:43:51.901Z,101280.59
2022-11-28T17:46:21.091Z,101282.31
2022-11-28T17:48:49.408Z,101284.32
2022-11-28T17:51:17.780Z,101282.56
2022-11-28T17:53:46.254Z,101285.77
2022-11-28T17:56:14.654Z,101281.27
2022-11-28T17:58:44.401Z,101285.03
2022-11-28T18:01:17.546Z,101288.33
2022-11-28T18:03:46.595Z,101284.40
2022-11-28T18:06:18.107Z,101286.26
2022-11-28T18:08:48.736Z,101290.36
2022-11-28T18:11:20.001Z,101286.91
2022-11-28T18:13:49.404Z,101288.39
2022-11-28T18:16:22.279Z,101286.98
2022-11-28T18:18:51.214Z,101287.69
2022-11-28T18:21:24.449Z,101286.10
2022-11-28T18:23:53.958Z,101281.52
2022-11-28T18:26:25.479Z,101278.36
2022-11-28T18:28:54.509Z,101285.41
2022-11-28T18:31:25.086Z,101287.24
2022-11-28T18:34:00.191Z,101288.14
2022-11-28T18:36:32.765Z,101286.48
2022-11-28T18:39:04.203Z,101293.02
2022-11-28T18:41:32.895Z,101294.83
2022-11-28T18:44:04.253Z,101297.94
2022-11-28T18:46:35.533Z,101292.24
2022-11-28T18:49:04.571Z,101295.88
2022-11-28T18:51:34.825Z,101296.36
2022-11-28T18:54:04.525Z,101298.23
2022-11-28T18:56:33.769Z,101303.15
2022-11-28T18:59:02.494Z,101309.46
2022-11-28T19:01:35.449Z,101309.96
2022-11-28T19:04:08.893Z,101302.95
2022-11-28T19:06:39.732Z,101300.50
2022-11-28T19:09:11.288Z,101305.07
2022-11-28T19:11:40.775Z,101300.02
2022-11-28T19:14:10.825Z,101301.29
2022-11-28T19:16:42.497Z,101299.90
2022-11-28T19:19:11.105Z,101296.49
2022-11-28T19:21:41.681Z,101299.80
2022-11-28T19:24:11.890Z,101297.64
2022-11-28T19:26:42.824Z,101305.19
2022-11-28T19:29:12.362Z,101306.73
2022-11-28T19:31:42.035Z,101310.30
2022-11-28T19:34:14.526Z,101316.94
2022-11-28T19:36:44.741Z,101318.29
2022-11-28T19:39:16.604Z,101319.45
2022-11-28T19:41:45.504Z,101322.35
2022-11-28T19:44:15.727Z,101322.48
2022-11-28T19:46:44.331Z,101320.32
2022-11-28T19:49:18.931Z,101318.59
2022-11-28T19:51:48.023Z,101319.65
2022-11-28T19:54:19.023Z,101316.09
2022-11-28T19:56:48.312Z,101316.23
2022-11-28T19:59:17.827Z,101312.38
2022-11-28T20:01:49.332Z,101314.54
2022-11-28T20:04:18.961Z,101316.27
2022-11-28T20:06:47.646Z,101312.81
2022-11-28T20:09:16.107Z,101314.23
2022-11-28T20:11:45.067Z,101312.96
2022-11-28T20:14:16.079Z,101319.80
2022-11-28T20:16:45.642Z,101323.17
2022-11-28T20:19:14.468Z,101324.59
2022-11-28T20:21:43.384Z,101326.15
2022-11-28T20:24:12.213Z,101320.63
2022-11-28T20:26:43.195Z,101319.02
2022-11-28T20:29:15.673Z,101320.66
2022-11-28T20:31:46.203Z,101316.15
2022-11-28T20:34:18.437Z,101315.93
2022-11-28T20:36:51.730Z,101313.89
2022-11-28T20:39:20.497Z,101316.74
2022-11-28T20:41:49.227Z,101319.08
2022-11-28T20:44:18.540Z,101323.59
2022-11-28T20:46:49.644Z,101326.69
2022-11-28T20:49:18.667Z,101329.61
2022-11-28T20:51:47.881Z,101334.21
2022-11-28T20:54:17.163Z,101337.32
2022-11-28T20:57:18.958Z,101333.79
2022-11-28T20:59:35.477Z,101334.59
2022-11-28T21:02:04.017Z,101331.88
2022-11-28T21:04:33.134Z,101327.66
2022-11-28T21:07:02.644Z,101328.73
2022-11-28T21:09:33.725Z,101331.54
2022-11-28T21:12:05.338Z,101330.11
2022-11-28T21:14:34.157Z,101330.55
2022-11-28T21:17:04.637Z,101327.67
2022-11-28T21:19:34.616Z,101326.08
2022-11-28T21:22:03.614Z,101328.49
2022-11-28T21:24:34.338Z,101329.35
2022-11-28T21:27:05.541Z,101333.33
2022-11-28T21:29:34.893Z,101332.92
2022-11-28T21:32:07.479Z,101333.42
2022-11-28T21:34:36.151Z,101333.67
2022-11-28T21:37:07.563Z,101332.34
2022-11-28T21:39:36.031Z,101337.44
2022-11-28T21:42:08.367Z,101335.77
2022-11-28T21:44:37.368Z,101335.27
2022-11-28T21:47:07.575Z,101331.52
2022-11-28T21:49:36.063Z,101330.19
2022-11-28T21:52:08.808Z,101327.52
2022-11-28T21:54:37.807Z,101332.16
2022-11-28T21:57:06.420Z,101322.09
2022-11-28T21:59:35.259Z,101322.73
2022-11-28T22:04:58.712Z,101320.02
2022-11-28T22:07:34.750Z,101320.19
2022-11-28T22:10:06.566Z,101322.75
2022-11-28T22:12:35.566Z,101317.91
2022-11-28T22:15:06.653Z,101319.40
2022-11-28T22:17:36.121Z,101316.84
2022-11-28T22:20:08.650Z,101314.93
2022-11-28T22:22:43.258Z,101314.91
2022-11-28T22:25:11.688Z,101312.16
2022-11-28T22:27:41.440Z,101311.39
2022-11-28T22:30:12.484Z,101310.58
2022-11-28T22:32:41.184Z,101310.08
2022-11-28T22:35:12.704Z,101310.36
2022-11-28T22:37:41.312Z,101314.96
2022-11-28T22:40:11.745Z,101313.67
2022-11-28T22:42:41.458Z,101305.86
2022-11-28T22:45:11.205Z,101305.33
2022-11-28T22:47:42.469Z,101306.55
2022-11-28T22:50:13.086Z,101307.30
2022-11-28T22:52:43.675Z,101311.20
2022-11-28T22:55:12.176Z,101307.80
2022-11-28T22:57:41.423Z,101306.86
2022-11-28T23:00:12.699Z,101306.94
2022-11-28T23:02:43.166Z,101308.26
2022-11-28T23:05:12.307Z,101307.55
2022-11-28T23:07:41.052Z,101304.39
2022-11-28T23:10:12.088Z,101301.70
2022-11-28T23:12:41.407Z,101301.31
2022-11-28T23:15:10.764Z,101301.55
2022-11-28T23:17:40.542Z,101301.09
2022-11-28T23:20:11.520Z,101301.98
2022-11-28T23:22:41.023Z,101306.11
2022-11-28T23:25:11.069Z,101305.90
2022-11-28T23:27:41.641Z,101302.27
2022-11-28T23:30:11.574Z,101305.86
2022-11-28T23:32:40.641Z,101303.61
2022-11-28T23:35:10.517Z,101300.85
2022-11-28T23:37:39.401Z,101299.17
2022-11-28T23:40:12.507Z,101292.36
2022-11-28T23:42:41.590Z,101296.45
2022-11-28T23:45:12.401Z,101297.71
2022-11-28T23:47:41.493Z,101294.14
2022-11-28T23:50:11.213Z,101296.49
2022-11-28T23:52:39.849Z,101295.40
2022-11-28T23:55:13.371Z,101296.30
2022-11-28T23:57:43.137Z,101292.89
